Time;durP1;ratioP1;P1;durP2;ratioP2;P2;SDS_P1;SDS_P2;PMS_P1;PMS_P2;Temp;Humidity;BMP_temperature;BMP_pressure;BME280_temperature;BME280_humidity;BME280_pressure;Samples;Min_cycle;Max_cycle;Signal;HPM_P1;HPM_P2
2022/07/12 12:30:54;;;;;;;1.85;1.10;;;31.30;55.30;;;;;;5123111;27;20388;-89
2022/07/12 12:37:34;;;;;;;2.15;1.10;;;31.60;55.20;;;;;;5051530;28;20049;-88
2022/07/12 12:43:39;;;;;;;0.82;0.80;;;32.10;54.30;;;;;;5078140;28;20168;-88
2022/07/12 12:46:05;;;;;;;0.75;0.73;;;32.30;54.80;;;;;;5103312;28;20102;-87
2022/07/12 12:48:45;;;;;;;0.68;0.68;;;32.10;53.30;;;;;;5096926;28;20124;-86
2022/07/12 13:05:49;;;;;;;1.67;0.60;;;31.90;48.80;;;;;;5032115;22;20034;-30
2022/07/12 13:08:16;;;;;;;0.50;0.50;;;32.10;49.10;;;;;;5026449;28;20269;-30
2022/07/12 13:10:45;;;;;;;1.67;0.60;;;32.00;49.90;;;;;;4993490;28;20522;-30
2022/07/12 13:13:12;;;;;;;0.80;0.80;;;32.40;50.00;;;;;;5007601;28;20376;-30
2022/07/12 13:15:38;;;;;;;0.80;0.80;;;32.40;48.70;;;;;;4988319;28;20045;-31
2022/07/12 13:18:05;;;;;;;0.73;0.60;;;32.60;48.20;;;;;;4983528;28;20507;-30
2022/07/12 13:20:32;;;;;;;0.60;0.60;;;32.80;49.20;;;;;;4979144;28;20049;-34
2022/07/12 13:23:00;;;;;;;0.70;0.70;;;32.70;48.20;;;;;;4988594;28;20176;-34
2022/07/12 13:25:27;;;;;;;1.63;0.73;;;32.40;47.30;;;;;;5019638;22;20041;-31
2022/07/12 13:27:53;;;;;;;0.50;0.50;;;32.30;46.20;;;;;;5026390;28;20038;-32
2022/07/12 13:30:19;;;;;;;0.50;0.50;;;32.50;47.20;;;;;;5120580;22;20057;-32
2022/07/12 13:32:46;;;;;;;0.68;0.50;;;32.80;48.20;;;;;;5017281;28;20037;-36
2022/07/12 13:35:12;;;;;;;1.25;0.50;;;33.10;47.60;;;;;;5042473;28;20040;-36
2022/07/12 13:37:40;;;;;;;0.63;0.63;;;32.90;45.70;;;;;;5036575;28;20033;-35
2022/07/12 13:40:16;;;;;;;1.05;0.70;;;32.80;46.00;;;;;;5020404;28;20076;-35
2022/07/12 13:42:53;;;;;;;0.90;0.50;;;32.80;44.70;;;;;;5007258;28;20502;-30
2022/07/12 13:45:28;;;;;;;1.90;0.52;;;32.60;44.50;;;;;;5016826;28;20041;-31
2022/07/12 13:47:54;;;;;;;0.52;0.52;;;32.50;43.30;;;;;;5010240;28;20037;-31
2022/07/12 13:50:21;;;;;;;1.08;0.60;;;32.20;43.60;;;;;;5016676;28;20405;-34
2022/07/12 13:52:48;;;;;;;1.15;0.60;;;32.10;44.90;;;;;;5014078;28;20040;-28
2022/07/12 13:55:16;;;;;;;0.70;0.70;;;32.00;45.40;;;;;;5007666;28;20061;-31
2022/07/12 13:57:42;;;;;;;1.95;0.80;;;32.00;45.80;;;;;;5021136;28;20033;-35
2022/07/12 14:00:11;;;;;;;2.70;1.10;;;32.10;45.20;;;;;;5028890;28;20073;-34
2022/07/12 14:02:38;;;;;;;0.70;0.70;;;32.00;46.00;;;;;;5029249;28;20061;-37
2022/07/12 14:05:05;;;;;;;1.52;0.70;;;31.70;46.70;;;;;;5026107;28;20076;-35
2022/07/12 14:07:32;;;;;;;1.20;0.60;;;31.40;47.00;;;;;;5029514;28;20037;-34
2022/07/12 14:09:59;;;;;;;0.80;0.80;;;31.10;47.80;;;;;;5027194;28;20038;-36
2022/07/12 14:12:26;;;;;;;1.08;0.73;;;31.20;48.70;;;;;;5028569;28;20041;-36
2022/07/12 14:17:37;;;;;;;1.95;0.98;;;31.30;49.00;;;;;;5023204;28;20037;-37
2022/07/12 14:20:04;;;;;;;2.25;0.82;;;31.50;49.20;;;;;;5029980;28;20111;-36
2022/07/12 14:22:30;;;;;;;1.42;0.90;;;31.70;48.50;;;;;;5009339;28;20593;-35
2022/07/12 14:24:57;;;;;;;1.00;0.70;;;31.80;47.60;;;;;;5026387;28;20461;-36
2022/07/12 14:27:26;;;;;;;0.60;0.60;;;31.80;47.70;;;;;;5008330;28;20475;-38
2022/07/12 14:29:51;;;;;;;0.70;0.70;;;31.70;47.70;;;;;;5011679;28;20062;-35
2022/07/12 14:32:17;;;;;;;0.70;0.70;;;31.50;48.00;;;;;;5006795;28;20045;-36
2022/07/12 14:34:43;;;;;;;0.80;0.80;;;31.30;48.60;;;;;;5025337;28;20041;-35
2022/07/12 14:37:08;;;;;;;1.13;0.75;;;31.30;49.50;;;;;;5022235;28;20037;-37
2022/07/12 14:39:35;;;;;;;4.28;0.90;;;31.20;50.10;;;;;;5019205;28;20064;-39
2022/07/12 14:42:00;;;;;;;2.67;0.80;;;31.20;50.20;;;;;;5009587;28;20081;-36
2022/07/12 14:44:26;;;;;;;0.70;0.70;;;31.20;49.80;;;;;;5018771;28;20699;-36
2022/07/12 14:46:53;;;;;;;2.13;0.70;;;31.00;50.00;;;;;;5023834;28;20091;-36
2022/07/12 14:49:22;;;;;;;1.30;0.70;;;30.90;49.40;;;;;;5022492;28;20046;-35
2022/07/12 14:51:48;;;;;;;0.95;0.77;;;30.60;49.80;;;;;;5027104;28;20510;-35
2022/07/12 14:54:14;;;;;;;1.40;0.90;;;30.60;50.90;;;;;;5006995;28;20056;-37
2022/07/12 14:56:40;;;;;;;1.00;0.80;;;30.40;51.30;;;;;;5003679;28;20061;-35
2022/07/12 14:59:06;;;;;;;0.85;0.77;;;30.20;50.60;;;;;;5007205;28;20076;-34
2022/07/12 15:01:32;;;;;;;0.80;0.80;;;29.80;49.70;;;;;;5017828;28;20400;-34
2022/07/12 15:03:58;;;;;;;1.05;0.95;;;29.70;50.60;;;;;;5027081;28;20037;-34
2022/07/12 15:06:26;;;;;;;1.52;0.70;;;29.60;49.70;;;;;;5004436;28;20037;-35
2022/07/12 15:08:52;;;;;;;1.10;0.95;;;29.40;50.70;;;;;;5015780;28;20168;-35
2022/07/12 15:11:18;;;;;;;0.98;0.90;;;29.30;50.30;;;;;;5008514;28;20538;-35
2022/07/12 15:13:45;;;;;;;1.35;0.88;;;29.30;50.60;;;;;;5025247;28;20167;-35
2022/07/12 15:16:13;;;;;;;1.30;0.90;;;29.40;51.60;;;;;;5008989;28;21489;-32
2022/07/12 15:18:39;;;;;;;1.10;0.90;;;29.30;52.00;;;;;;5027533;28;20120;-32
2022/07/12 15:21:05;;;;;;;1.13;1.05;;;29.40;52.60;;;;;;5022850;28;20510;-31
2022/07/12 15:23:31;;;;;;;1.25;1.10;;;29.30;52.80;;;;;;5029502;28;20498;-33
2022/07/12 15:25:57;;;;;;;1.50;1.10;;;29.10;52.20;;;;;;5024665;28;20402;-31
2022/07/12 15:28:28;;;;;;;2.47;1.20;;;29.20;52.70;;;;;;5025352;28;20402;-32
2022/07/12 15:30:55;;;;;;;1.95;1.10;;;29.10;52.40;;;;;;5023247;28;20069;-33
2022/07/12 15:33:21;;;;;;;2.45;1.65;;;29.00;53.70;;;;;;5020754;28;20044;-31
2022/07/12 15:35:47;;;;;;;1.83;1.00;;;29.00;53.40;;;;;;4998416;28;20034;-32
2022/07/12 15:38:13;;;;;;;1.83;1.40;;;28.90;54.30;;;;;;5017782;28;20076;-31
2022/07/12 15:40:39;;;;;;;1.83;1.50;;;28.90;54.90;;;;;;5024428;28;20133;-32
2022/07/12 15:43:05;;;;;;;1.30;1.20;;;28.80;55.60;;;;;;5025818;28;20040;-31
2022/07/12 15:45:31;;;;;;;3.67;1.38;;;28.80;56.20;;;;;;5018518;28;20037;-31
2022/07/12 15:47:59;;;;;;;2.83;1.42;;;28.90;57.00;;;;;;5022656;28;20068;-31
2022/07/12 15:50:25;;;;;;;1.30;1.27;;;29.00;56.40;;;;;;5027802;28;20752;-32
2022/07/12 15:55:36;;;;;;;2.50;1.30;;;28.90;57.50;;;;;;5017098;28;20044;-31
2022/07/12 15:58:02;;;;;;;1.45;1.35;;;28.90;56.90;;;;;;5017970;28;20487;-31
2022/07/12 16:00:28;;;;;;;1.67;1.58;;;28.80;57.40;;;;;;5021184;28;20033;-31
2022/07/12 16:02:54;;;;;;;1.40;1.30;;;28.70;59.40;;;;;;5010360;28;20045;-31
2022/07/12 16:05:20;;;;;;;1.88;1.15;;;28.70;59.30;;;;;;5021094;28;20049;-32
2022/07/12 16:07:47;;;;;;;1.33;1.23;;;28.60;60.50;;;;;;5025517;28;20112;-31
2022/07/12 16:10:14;;;;;;;2.30;1.40;;;28.60;61.00;;;;;;5026579;28;20033;-32
2022/07/12 16:12:39;;;;;;;2.08;1.27;;;28.50;64.20;;;;;;5021208;28;20041;-33
2022/07/12 16:15:07;;;;;;;2.33;1.63;;;28.40;64.60;;;;;;5001271;28;20045;-35
2022/07/12 16:17:33;;;;;;;2.63;1.30;;;28.30;68.30;;;;;;5019199;28;20041;-35
2022/07/12 16:19:59;;;;;;;3.80;1.75;;;28.20;68.00;;;;;;5020888;28;20046;-32
2022/07/12 16:22:25;;;;;;;2.90;2.20;;;28.20;70.00;;;;;;5022897;28;20036;-31
2022/07/12 16:24:51;;;;;;;3.70;1.95;;;28.10;73.60;;;;;;5020660;28;20100;-31
2022/07/12 16:27:19;;;;;;;1.60;1.40;;;28.10;76.20;;;;;;4990919;28;20443;-32
2022/07/12 16:29:45;;;;;;;2.47;1.40;;;28.10;73.50;;;;;;5011636;28;20068;-31
2022/07/12 16:32:10;;;;;;;1.40;1.30;;;28.10;76.40;;;;;;5002834;28;20727;-31
2022/07/12 16:34:36;;;;;;;3.40;1.20;;;28.00;74.60;;;;;;5015250;28;20030;-32
2022/07/12 16:37:02;;;;;;;4.15;1.20;;;27.90;76.40;;;;;;5009519;28;20034;-31
2022/07/12 16:39:28;;;;;;;1.30;1.20;;;27.90;79.10;;;;;;5022040;28;20041;-33
2022/07/12 16:41:53;;;;;;;2.53;1.23;;;27.90;83.30;;;;;;5020000;28;20048;-31
2022/07/12 16:44:20;;;;;;;2.80;1.23;;;27.80;81.00;;;;;;5026324;28;20041;-32
2022/07/12 16:46:46;;;;;;;1.67;1.55;;;27.70;78.70;;;;;;5023099;28;20038;-32
2022/07/12 16:49:15;;;;;;;1.48;1.38;;;27.50;82.00;;;;;;5024481;28;20041;-31
2022/07/12 16:51:41;;;;;;;2.38;1.30;;;27.50;83.50;;;;;;5024846;28;20029;-32
2022/07/12 16:54:07;;;;;;;1.52;1.42;;;27.40;86.90;;;;;;5018172;28;20611;-30
2022/07/12 16:56:32;;;;;;;1.20;1.10;;;27.20;89.50;;;;;;4992885;28;20068;-30
2022/07/12 16:59:00;;;;;;;2.03;1.23;;;27.20;89.30;;;;;;5011024;28;20050;-32
2022/07/12 17:01:26;;;;;;;2.33;1.25;;;27.10;86.00;;;;;;4990608;28;20073;-29
2022/07/12 17:03:53;;;;;;;1.52;1.10;;;27.10;90.10;;;;;;5008911;28;20448;-33
2022/07/12 17:06:19;;;;;;;1.38;1.27;;;27.00;90.40;;;;;;5024364;28;20042;-34
2022/07/12 17:08:46;;;;;;;3.38;1.13;;;26.90;90.70;;;;;;5024917;28;20120;-33
2022/07/12 17:11:13;;;;;;;1.33;1.10;;;26.90;90.70;;;;;;5020494;28;20034;-33
2022/07/12 17:13:40;;;;;;;3.55;1.40;;;26.80;90.20;;;;;;5025501;28;20045;-34
2022/07/12 17:16:06;;;;;;;5.57;1.40;;;26.80;91.10;;;;;;5020295;28;20099;-32
2022/07/12 17:18:31;;;;;;;1.45;1.25;;;26.70;92.10;;;;;;5031359;28;20036;-34
2022/07/12 17:20:58;;;;;;;3.08;1.15;;;26.60;93.40;;;;;;5031142;28;20490;-33
2022/07/12 17:23:24;;;;;;;2.83;1.13;;;26.50;93.80;;;;;;5030437;28;20447;-34
2022/07/12 17:25:50;;;;;;;2.28;1.30;;;26.50;95.20;;;;;;5021428;28;20041;-34
2022/07/12 17:28:19;;;;;;;1.83;1.25;;;26.50;95.90;;;;;;5029564;28;20083;-33
2022/07/12 17:30:46;;;;;;;3.97;1.48;;;26.40;96.30;;;;;;5031213;28;20581;-36
2022/07/12 17:33:11;;;;;;;2.10;1.27;;;26.40;97.40;;;;;;5025622;28;20640;-35
2022/07/12 17:35:39;;;;;;;3.35;1.20;;;26.40;97.20;;;;;;5028425;28;20029;-34
2022/07/12 17:38:08;;;;;;;3.40;1.30;;;26.30;96.50;;;;;;5025399;28;20482;-35
2022/07/12 17:40:34;;;;;;;1.60;1.33;;;26.30;96.90;;;;;;5022748;28;20038;-35
2022/07/12 17:43:01;;;;;;;1.20;1.10;;;26.20;97.50;;;;;;5029517;28;20045;-33
2022/07/12 17:45:27;;;;;;;2.95;1.40;;;26.20;98.00;;;;;;5005604;28;20038;-31
2022/07/12 17:47:54;;;;;;;3.22;2.35;;;26.20;97.70;;;;;;5004707;28;20042;-31
2022/07/12 17:50:21;;;;;;;2.20;1.23;;;26.20;97.20;;;;;;5009950;28;20054;-32
2022/07/12 17:52:48;;;;;;;3.67;1.40;;;26.30;98.00;;;;;;5019172;28;20498;-31
2022/07/12 17:55:17;;;;;;;2.10;1.10;;;26.20;97.50;;;;;;5028127;28;20065;-31
2022/07/12 18:00:30;;;;;;;1.48;1.35;;;26.30;99.90;;;;;;5026897;28;21036;-31
2022/07/12 18:02:57;;;;;;;2.78;1.33;;;26.20;99.60;;;;;;5016417;28;20041;-30
2022/07/12 18:05:23;;;;;;;4.60;1.35;;;26.20;98.60;;;;;;5008701;28;20057;-31
2022/07/12 18:07:49;;;;;;;2.65;1.30;;;26.10;97.70;;;;;;5027479;28;20414;-30
2022/07/12 18:10:15;;;;;;;1.42;1.33;;;26.10;98.10;;;;;;5007979;28;20061;-30
2022/07/12 18:15:27;;;;;;;1.67;1.52;;;26.00;99.90;;;;;;5017976;28;20041;-32
2022/07/12 18:18:02;;;;;;;1.73;1.45;;;26.00;99.90;;;;;;5027021;28;20037;-30
2022/07/12 18:20:33;;;;;;;1.92;1.30;;;25.80;99.90;;;;;;5009912;28;20076;-30
2022/07/12 18:22:59;;;;;;;3.08;1.30;;;25.80;99.90;;;;;;5021251;28;20038;-31
2022/07/12 18:25:25;;;;;;;2.35;1.23;;;25.70;99.90;;;;;;4991472;28;20052;-31
2022/07/12 18:27:53;;;;;;;1.97;1.40;;;25.60;99.90;;;;;;5005264;28;20406;-31
2022/07/12 18:30:23;;;;;;;1.65;1.20;;;25.60;99.90;;;;;;5008183;28;20040;-31
2022/07/12 18:32:50;;;;;;;1.45;1.35;;;25.50;99.90;;;;;;5018267;28;20034;-31
2022/07/12 18:35:18;;;;;;;2.70;1.27;;;25.30;99.90;;;;;;5003027;28;20064;-31
2022/07/12 18:37:44;;;;;;;1.60;1.45;;;25.30;99.90;;;;;;5006191;28;20045;-30
2022/07/12 18:40:10;;;;;;;2.72;1.45;;;25.20;99.90;;;;;;5005912;28;20037;-30
2022/07/12 18:42:36;;;;;;;2.53;1.40;;;25.10;99.90;;;;;;5021644;28;20051;-30
2022/07/12 18:45:03;;;;;;;1.55;1.45;;;25.00;99.90;;;;;;5000063;28;20085;-34
2022/07/12 18:47:29;;;;;;;1.38;1.30;;;24.90;99.90;;;;;;5018184;28;20087;-32
2022/07/12 18:49:55;;;;;;;2.42;1.55;;;24.80;99.90;;;;;;5023324;28;20077;-32
2022/07/12 18:52:22;;;;;;;2.00;1.60;;;24.70;99.90;;;;;;5021687;28;20065;-32
2022/07/12 18:54:51;;;;;;;1.40;1.30;;;24.60;99.90;;;;;;5023328;28;20043;-32
2022/07/12 18:57:16;;;;;;;3.42;1.30;;;24.60;99.90;;;;;;5024407;28;20084;-31
2022/07/12 18:59:42;;;;;;;1.67;1.58;;;24.50;99.90;;;;;;5022505;28;20065;-33
2022/07/12 19:02:08;;;;;;;3.35;1.70;;;24.50;99.90;;;;;;5021814;28;20041;-33
2022/07/12 19:04:34;;;;;;;2.40;1.58;;;24.50;99.90;;;;;;5020069;28;20030;-33
2022/07/12 19:07:00;;;;;;;1.73;1.63;;;24.50;99.90;;;;;;5022636;28;20047;-34
2022/07/12 19:09:26;;;;;;;2.10;1.80;;;24.40;99.90;;;;;;5003042;28;20045;-33
2022/07/12 19:11:53;;;;;;;2.15;1.50;;;24.30;99.90;;;;;;5024073;28;20026;-33
2022/07/12 19:14:22;;;;;;;1.77;1.63;;;24.30;99.90;;;;;;5020348;28;20038;-32
2022/07/12 19:16:51;;;;;;;2.90;1.60;;;24.20;99.90;;;;;;5019243;28;20034;-34
2022/07/12 19:19:19;;;;;;;1.98;1.50;;;24.10;99.90;;;;;;5027067;28;20045;-29
2022/07/12 19:21:45;;;;;;;1.70;1.60;;;24.00;99.90;;;;;;5021816;28;20107;-32
2022/07/12 19:24:10;;;;;;;1.60;1.50;;;23.90;99.90;;;;;;5019494;28;20694;-31
2022/07/12 19:26:36;;;;;;;1.95;1.63;;;23.80;99.90;;;;;;5020194;28;20525;-30
2022/07/12 19:29:02;;;;;;;2.08;1.95;;;23.80;99.90;;;;;;5016060;28;20061;-29
2022/07/12 19:31:29;;;;;;;2.95;1.77;;;23.70;99.90;;;;;;5025145;28;20103;-32
2022/07/12 19:33:54;;;;;;;2.15;1.70;;;23.70;99.90;;;;;;5020173;28;20403;-34
2022/07/12 19:36:20;;;;;;;3.45;1.75;;;23.60;99.90;;;;;;5006472;28;20041;-34
2022/07/12 19:38:46;;;;;;;3.38;1.60;;;23.50;99.90;;;;;;4985263;28;20041;-30
2022/07/12 19:41:11;;;;;;;1.70;1.60;;;23.40;99.90;;;;;;5012580;28;20038;-30
2022/07/12 19:43:40;;;;;;;2.33;1.80;;;23.40;99.90;;;;;;5009277;28;20037;-33
2022/07/12 19:46:08;;;;;;;1.88;1.52;;;23.30;99.90;;;;;;5013448;28;20050;-34
2022/07/12 19:48:35;;;;;;;2.00;1.83;;;23.30;99.90;;;;;;5022795;28;20042;-37
2022/07/12 19:51:01;;;;;;;2.75;1.88;;;23.20;99.90;;;;;;4977918;28;20041;-31
2022/07/12 19:53:27;;;;;;;1.90;1.80;;;23.20;99.90;;;;;;5025328;28;20038;-30
2022/07/12 19:55:58;;;;;;;1.80;1.70;;;23.10;99.90;;;;;;5014332;28;20494;-33
2022/07/12 19:58:26;;;;;;;2.88;2.30;;;23.10;99.90;;;;;;4998702;28;20041;-30
2022/07/12 20:00:55;;;;;;;2.00;1.90;;;23.00;99.90;;;;;;5002939;28;20509;-32
2022/07/12 20:03:21;;;;;;;2.30;2.10;;;22.90;99.90;;;;;;5032766;28;20091;-32
2022/07/12 20:05:54;;;;;;;2.17;2.00;;;22.90;99.90;;;;;;5031360;28;20037;-33
2022/07/12 20:08:31;;;;;;;2.30;2.10;;;22.80;99.90;;;;;;5007521;28;20076;-33
2022/07/12 20:11:01;;;;;;;2.08;1.92;;;22.80;99.90;;;;;;5009423;28;20030;-32
2022/07/12 20:13:30;;;;;;;2.17;2.08;;;22.80;99.90;;;;;;4996065;28;20033;-31
2022/07/12 20:15:56;;;;;;;3.08;2.42;;;22.70;99.90;;;;;;5022288;28;20104;-31
2022/07/12 20:18:22;;;;;;;2.85;2.25;;;22.70;99.90;;;;;;5026858;28;20041;-33
2022/07/12 20:20:51;;;;;;;2.50;2.30;;;22.60;99.90;;;;;;5026541;28;20495;-31
2022/07/12 20:23:17;;;;;;;21.25;19.17;;;22.50;99.90;;;;;;5028267;28;20499;-31
2022/07/12 20:25:42;;;;;;;9.63;8.73;;;22.50;99.90;;;;;;5016216;28;20037;-37
2022/07/12 20:28:08;;;;;;;8.00;7.30;;;22.50;99.90;;;;;;5020670;28;20042;-31
2022/07/12 20:30:37;;;;;;;10.57;9.57;;;22.40;99.90;;;;;;4998642;28;20044;-42
2022/07/12 20:35:47;;;;;;;7.65;6.85;;;22.30;99.90;;;;;;5001126;28;20041;-32
2022/07/12 20:38:13;;;;;;;6.60;5.93;;;22.30;99.90;;;;;;5022470;28;20052;-31
2022/07/12 20:40:39;;;;;;;5.30;4.82;;;22.20;99.90;;;;;;5013616;28;20033;-32
2022/07/12 20:43:05;;;;;;;4.38;3.97;;;22.10;99.90;;;;;;5013523;28;20116;-31
2022/07/12 20:45:30;;;;;;;3.35;3.13;;;22.10;99.90;;;;;;5000464;28;20049;-31
2022/07/12 20:47:56;;;;;;;3.60;3.30;;;22.00;99.90;;;;;;4987056;28;20041;-35
2022/07/12 20:50:22;;;;;;;3.25;2.95;;;22.00;99.90;;;;;;5000477;28;20048;-34
2022/07/12 20:52:48;;;;;;;4.20;2.90;;;22.00;99.90;;;;;;5024789;28;20034;-35
2022/07/12 20:55:14;;;;;;;4.40;3.08;;;21.90;99.90;;;;;;5029854;28;20414;-33
2022/07/12 20:57:40;;;;;;;2.80;2.60;;;21.90;99.90;;;;;;5023709;28;20417;-34
2022/07/12 21:09:56;;;;;;;4.25;2.88;;;21.80;99.90;;;;;;5052940;28;20713;-24
2022/07/12 21:12:22;;;;;;;2.88;2.67;;;21.80;99.90;;;;;;5036682;28;20049;-24
2022/07/12 21:14:48;;;;;;;3.83;2.80;;;21.80;99.90;;;;;;5043332;28;20129;-24
2022/07/12 21:17:14;;;;;;;4.80;3.10;;;21.80;99.90;;;;;;5054365;28;20478;-24
2022/07/12 21:19:39;;;;;;;3.17;2.97;;;21.80;99.90;;;;;;5017671;28;20045;-24
2022/07/12 21:22:05;;;;;;;3.25;2.95;;;21.80;99.90;;;;;;5034138;28;20063;-24
2022/07/12 21:24:31;;;;;;;3.33;3.10;;;21.80;99.90;;;;;;5054643;28;20112;-24
2022/07/12 21:26:57;;;;;;;3.63;3.03;;;21.70;99.90;;;;;;5055082;28;20053;-24
2022/07/12 21:29:23;;;;;;;2.85;2.58;;;21.70;99.90;;;;;;5054286;28;20033;-24
2022/07/12 21:31:50;;;;;;;2.85;2.65;;;21.60;99.90;;;;;;5054826;28;20044;-24
2022/07/12 21:34:16;;;;;;;3.28;2.60;;;21.60;99.90;;;;;;5052800;28;20108;-24
2022/07/12 21:36:42;;;;;;;2.97;2.78;;;21.50;99.90;;;;;;5054641;28;20109;-24
2022/07/12 21:39:07;;;;;;;2.60;2.40;;;21.50;99.90;;;;;;5053824;28;20041;-24
2022/07/12 21:41:33;;;;;;;3.55;2.90;;;21.50;99.90;;;;;;5049994;28;20033;-24
2022/07/12 21:43:59;;;;;;;2.78;2.58;;;21.40;99.90;;;;;;5052590;28;20106;-24
2022/07/12 21:46:24;;;;;;;3.03;2.72;;;21.40;99.90;;;;;;5053964;28;20033;-24
2022/07/12 21:48:52;;;;;;;5.05;2.78;;;21.40;99.90;;;;;;5054295;28;20411;-24
2022/07/12 21:51:18;;;;;;;2.92;2.70;;;21.30;99.90;;;;;;5036382;28;20044;-24
2022/07/12 21:53:43;;;;;;;2.95;2.75;;;21.30;99.90;;;;;;5053805;28;20029;-24
2022/07/12 21:56:09;;;;;;;3.33;3.03;;;21.30;99.90;;;;;;5053366;28;20566;-24
2022/07/12 21:58:36;;;;;;;5.00;3.38;;;21.20;99.90;;;;;;5053221;28;20083;-24
2022/07/12 22:01:02;;;;;;;3.38;2.92;;;21.10;99.90;;;;;;5052868;28;20045;-26
2022/07/12 22:03:28;;;;;;;5.38;3.58;;;21.10;99.90;;;;;;5053280;28;20029;-25
2022/07/12 22:05:53;;;;;;;3.97;3.60;;;21.10;99.90;;;;;;5053102;28;20415;-26
2022/07/12 22:08:20;;;;;;;3.97;3.78;;;21.00;99.90;;;;;;5053165;28;20040;-26
2022/07/12 22:10:45;;;;;;;3.80;3.50;;;20.90;99.90;;;;;;5035063;28;20053;-24
2022/07/12 22:13:11;;;;;;;3.88;3.47;;;20.90;99.90;;;;;;5053077;28;20047;-26
2022/07/12 22:15:37;;;;;;;5.60;5.22;;;20.90;99.90;;;;;;5053203;28;20087;-26
2022/07/12 22:18:02;;;;;;;6.38;5.88;;;20.90;99.90;;;;;;5053570;28;20040;-25
2022/07/12 22:20:28;;;;;;;6.45;5.95;;;20.90;99.90;;;;;;5053231;28;20036;-25
2022/07/12 22:22:54;;;;;;;5.97;5.53;;;20.90;99.90;;;;;;5053447;28;20049;-26
2022/07/12 22:25:20;;;;;;;6.65;6.15;;;20.90;99.90;;;;;;5053724;28;20037;-24
2022/07/12 22:27:45;;;;;;;6.10;5.60;;;20.90;99.90;;;;;;5035513;28;20077;-25
2022/07/12 22:30:11;;;;;;;6.30;4.95;;;20.90;99.90;;;;;;5018672;28;20045;-25
2022/07/12 22:32:37;;;;;;;6.55;6.05;;;20.90;99.90;;;;;;5035700;28;20037;-26
2022/07/12 22:35:02;;;;;;;5.82;5.22;;;20.90;99.90;;;;;;5053682;28;20037;-26
2022/07/12 22:37:28;;;;;;;5.50;5.07;;;20.90;99.90;;;;;;5035229;28;20092;-25
2022/07/12 22:39:54;;;;;;;5.05;4.75;;;20.80;99.90;;;;;;5053728;28;20470;-26
2022/07/12 22:42:19;;;;;;;5.60;5.18;;;20.90;99.90;;;;;;5053507;28;20045;-25
2022/07/12 22:44:45;;;;;;;5.88;5.43;;;20.80;99.90;;;;;;5053211;28;20041;-25
2022/07/12 22:47:11;;;;;;;5.25;4.80;;;20.80;99.90;;;;;;5053157;28;20040;-26
2022/07/12 22:49:37;;;;;;;5.38;4.82;;;20.80;99.90;;;;;;5053357;28;20065;-25
2022/07/12 22:52:03;;;;;;;4.90;4.50;;;20.70;99.90;;;;;;5052697;28;20556;-26
2022/07/12 22:54:29;;;;;;;5.82;4.82;;;20.60;99.90;;;;;;5053261;28;20072;-25
2022/07/12 22:56:55;;;;;;;5.93;5.10;;;20.60;99.90;;;;;;5053014;28;20048;-26
2022/07/12 22:59:21;;;;;;;5.80;5.40;;;20.50;99.90;;;;;;5052882;28;20447;-25
2022/07/12 23:01:46;;;;;;;5.50;5.05;;;20.50;99.90;;;;;;5034896;28;20045;-25
2022/07/12 23:04:12;;;;;;;5.72;5.20;;;20.50;99.90;;;;;;5053075;28;20088;-26
2022/07/12 23:06:38;;;;;;;5.68;4.85;;;20.50;99.90;;;;;;5052741;28;20098;-25
2022/07/12 23:09:05;;;;;;;5.60;5.10;;;20.50;99.90;;;;;;5050079;28;20493;-29
2022/07/12 23:11:31;;;;;;;5.82;5.38;;;20.40;99.90;;;;;;5051899;28;20060;-29
2022/07/12 23:13:57;;;;;;;6.10;5.60;;;20.40;99.90;;;;;;5049275;28;20036;-28
2022/07/12 23:16:23;;;;;;;6.70;6.30;;;20.40;99.90;;;;;;5051598;28;20120;-25
2022/07/12 23:18:48;;;;;;;5.60;5.20;;;20.40;99.90;;;;;;5052503;28;20087;-25
2022/07/12 23:21:14;;;;;;;6.18;5.78;;;20.40;99.90;;;;;;5052290;28;20033;-25
2022/07/12 23:23:40;;;;;;;6.32;5.82;;;20.40;99.90;;;;;;5051962;28;20033;-29
2022/07/12 23:26:06;;;;;;;6.75;6.22;;;20.40;99.90;;;;;;5050404;28;20059;-29
2022/07/12 23:28:32;;;;;;;6.40;5.90;;;20.30;99.90;;;;;;5048008;28;20212;-28
2022/07/12 23:30:58;;;;;;;7.63;6.97;;;20.40;99.90;;;;;;5048801;28;20045;-28
2022/07/12 23:33:24;;;;;;;7.10;6.50;;;20.30;99.90;;;;;;5049322;28;20285;-28
2022/07/12 23:35:49;;;;;;;6.38;5.88;;;20.40;99.90;;;;;;5049450;28;20443;-28
2022/07/12 23:38:15;;;;;;;6.65;6.13;;;20.40;99.90;;;;;;5050633;28;20051;-28
2022/07/12 23:40:41;;;;;;;6.82;6.28;;;20.40;99.90;;;;;;5050539;28;20116;-28
2022/07/12 23:43:06;;;;;;;6.60;5.90;;;20.40;99.90;;;;;;5049931;28;20048;-28
2022/07/12 23:45:34;;;;;;;7.30;6.70;;;20.30;99.90;;;;;;5050243;28;20638;-28
2022/07/12 23:48:01;;;;;;;6.95;6.28;;;20.30;99.90;;;;;;5050786;28;20056;-28
2022/07/12 23:50:27;;;;;;;8.15;6.97;;;20.30;99.90;;;;;;5050968;28;20119;-29
2022/07/12 23:52:53;;;;;;;7.80;7.15;;;20.30;99.90;;;;;;5034932;28;20039;-29
2022/07/12 23:55:19;;;;;;;7.47;6.88;;;20.20;99.90;;;;;;5043132;28;20486;-29
2022/07/12 23:57:45;;;;;;;7.40;6.90;;;20.20;99.90;;;;;;5047935;28;20029;-29
